sensor_id;sensor_type;location;lat;lon;timestamp;temperature;humidity
78619;DHT22;67941;52.506;5.470;2024-03-29T00:00:12;8.80;64.90
78619;DHT22;67941;52.506;5.470;2024-03-29T00:02:41;8.70;65.00
78619;DHT22;67941;52.506;5.470;2024-03-29T00:05:07;8.70;64.90
78619;DHT22;67941;52.506;5.470;2024-03-29T00:07:34;8.60;65.00
78619;DHT22;67941;52.506;5.470;2024-03-29T00:10:00;8.60;65.00
78619;DHT22;67941;52.506;5.470;2024-03-29T00:12:26;8.60;65.00
78619;DHT22;67941;52.506;5.470;2024-03-29T00:14:52;8.60;65.00
78619;DHT22;67941;52.506;5.470;2024-03-29T00:17:21;8.60;65.10
78619;DHT22;67941;52.506;5.470;2024-03-29T00:19:47;8.60;65.10
78619;DHT22;67941;52.506;5.470;2024-03-29T00:22:14;8.60;65.10
78619;DHT22;67941;52.506;5.470;2024-03-29T00:24:40;8.60;65.20
78619;DHT22;67941;52.506;5.470;2024-03-29T00:27:06;8.60;65.20
78619;DHT22;67941;52.506;5.470;2024-03-29T00:29:33;8.60;65.30
78619;DHT22;67941;52.506;5.470;2024-03-29T00:32:00;8.50;65.30
78619;DHT22;67941;52.506;5.470;2024-03-29T00:34:29;8.50;65.30
78619;DHT22;67941;52.506;5.470;2024-03-29T00:36:55;8.60;65.30
78619;DHT22;67941;52.506;5.470;2024-03-29T00:39:21;8.50;65.30
78619;DHT22;67941;52.506;5.470;2024-03-29T00:41:47;8.50;65.30
78619;DHT22;67941;52.506;5.470;2024-03-29T00:44:13;8.50;65.30
78619;DHT22;67941;52.506;5.470;2024-03-29T00:46:40;8.50;65.40
78619;DHT22;67941;52.506;5.470;2024-03-29T00:49:06;8.50;65.40
78619;DHT22;67941;52.506;5.470;2024-03-29T00:51:35;8.40;65.40
78619;DHT22;67941;52.506;5.470;2024-03-29T00:54:01;8.40;65.50
78619;DHT22;67941;52.506;5.470;2024-03-29T00:56:27;8.40;65.50
78619;DHT22;67941;52.506;5.470;2024-03-29T00:58:53;8.40;65.50
78619;DHT22;67941;52.506;5.470;2024-03-29T01:01:19;8.30;65.50
78619;DHT22;67941;52.506;5.470;2024-03-29T01:03:46;8.30;65.60
78619;DHT22;67941;52.506;5.470;2024-03-29T01:06:12;8.30;65.60
78619;DHT22;67941;52.506;5.470;2024-03-29T01:08:41;8.30;65.60
78619;DHT22;67941;52.506;5.470;2024-03-29T01:11:07;8.30;65.60
78619;DHT22;67941;52.506;5.470;2024-03-29T01:13:33;8.20;65.70
78619;DHT22;67941;52.506;5.470;2024-03-29T01:15:59;8.20;65.70
78619;DHT22;67941;52.506;5.470;2024-03-29T01:18:26;8.20;65.70
78619;DHT22;67941;52.506;5.470;2024-03-29T01:20:52;8.20;65.80
78619;DHT22;67941;52.506;5.470;2024-03-29T01:23:18;8.20;65.80
78619;DHT22;67941;52.506;5.470;2024-03-29T01:25:47;8.10;65.80
78619;DHT22;67941;52.506;5.470;2024-03-29T01:28:13;8.10;65.80
78619;DHT22;67941;52.506;5.470;2024-03-29T01:30:39;8.10;65.80
78619;DHT22;67941;52.506;5.470;2024-03-29T01:33:05;8.10;65.80
78619;DHT22;67941;52.506;5.470;2024-03-29T01:35:32;8.00;65.90
78619;DHT22;67941;52.506;5.470;2024-03-29T01:37:58;8.00;65.90
78619;DHT22;67941;52.506;5.470;2024-03-29T01:40:24;8.00;65.90
78619;DHT22;67941;52.506;5.470;2024-03-29T01:42:55;8.00;65.90
78619;DHT22;67941;52.506;5.470;2024-03-29T01:45:22;8.00;66.00
78619;DHT22;67941;52.506;5.470;2024-03-29T01:47:48;7.90;66.00
78619;DHT22;67941;52.506;5.470;2024-03-29T01:50:14;7.90;66.00
78619;DHT22;67941;52.506;5.470;2024-03-29T01:52:41;7.90;66.00
78619;DHT22;67941;52.506;5.470;2024-03-29T01:55:07;7.90;66.00
78619;DHT22;67941;52.506;5.470;2024-03-29T01:57:34;7.90;66.10
78619;DHT22;67941;52.506;5.470;2024-03-29T02:00:04;7.90;66.10
78619;DHT22;67941;52.506;5.470;2024-03-29T02:02:32;7.90;66.20
78619;DHT22;67941;52.506;5.470;2024-03-29T02:04:59;8.00;66.20
78619;DHT22;67941;52.506;5.470;2024-03-29T02:07:25;8.00;66.20
78619;DHT22;67941;52.506;5.470;2024-03-29T02:09:51;8.00;66.10
78619;DHT22;67941;52.506;5.470;2024-03-29T02:12:18;8.00;66.10
78619;DHT22;67941;52.506;5.470;2024-03-29T02:14:44;8.00;66.10
78619;DHT22;67941;52.506;5.470;2024-03-29T02:17:13;8.00;66.20
78619;DHT22;67941;52.506;5.470;2024-03-29T02:19:39;8.00;66.20
78619;DHT22;67941;52.506;5.470;2024-03-29T02:22:05;8.00;66.20
78619;DHT22;67941;52.506;5.470;2024-03-29T02:24:36;8.00;66.30
78619;DHT22;67941;52.506;5.470;2024-03-29T02:27:03;8.00;66.20
78619;DHT22;67941;52.506;5.470;2024-03-29T02:29:30;8.00;66.30
78619;DHT22;67941;52.506;5.470;2024-03-29T02:31:56;8.00;66.30
78619;DHT22;67941;52.506;5.470;2024-03-29T02:34:22;8.00;66.30
78619;DHT22;67941;52.506;5.470;2024-03-29T02:36:49;8.00;66.30
78619;DHT22;67941;52.506;5.470;2024-03-29T02:39:15;8.00;66.40
78619;DHT22;67941;52.506;5.470;2024-03-29T02:41:44;8.00;66.40
78619;DHT22;67941;52.506;5.470;2024-03-29T02:44:10;8.00;66.40
78619;DHT22;67941;52.506;5.470;2024-03-29T02:46:36;7.90;66.40
78619;DHT22;67941;52.506;5.470;2024-03-29T02:49:02;8.00;66.50
78619;DHT22;67941;52.506;5.470;2024-03-29T02:51:28;8.00;66.50
78619;DHT22;67941;52.506;5.470;2024-03-29T02:53:55;8.00;66.50
78619;DHT22;67941;52.506;5.470;2024-03-29T02:56:21;8.00;66.50
78619;DHT22;67941;52.506;5.470;2024-03-29T02:58:50;8.00;66.50
78619;DHT22;67941;52.506;5.470;2024-03-29T03:01:16;8.00;66.50
78619;DHT22;67941;52.506;5.470;2024-03-29T03:03:42;8.00;66.50
78619;DHT22;67941;52.506;5.470;2024-03-29T03:06:08;8.00;66.50
78619;DHT22;67941;52.506;5.470;2024-03-29T03:08:35;8.00;66.50
78619;DHT22;67941;52.506;5.470;2024-03-29T03:11:16;8.00;66.50
78619;DHT22;67941;52.506;5.470;2024-03-29T03:13:42;8.00;66.50
78619;DHT22;67941;52.506;5.470;2024-03-29T03:16:11;8.00;66.50
78619;DHT22;67941;52.506;5.470;2024-03-29T03:18:37;8.00;66.50
78619;DHT22;67941;52.506;5.470;2024-03-29T03:21:04;8.00;66.50
78619;DHT22;67941;52.506;5.470;2024-03-29T03:23:30;7.90;66.60
78619;DHT22;67941;52.506;5.470;2024-03-29T03:25:57;7.90;66.60
78619;DHT22;67941;52.506;5.470;2024-03-29T03:28:23;7.90;66.60
78619;DHT22;67941;52.506;5.470;2024-03-29T03:30:49;7.90;66.60
78619;DHT22;67941;52.506;5.470;2024-03-29T03:33:18;7.90;66.60
78619;DHT22;67941;52.506;5.470;2024-03-29T03:35:45;7.90;66.70
78619;DHT22;67941;52.506;5.470;2024-03-29T03:38:11;7.80;66.70
78619;DHT22;67941;52.506;5.470;2024-03-29T03:40:38;7.90;66.70
78619;DHT22;67941;52.506;5.470;2024-03-29T03:43:05;7.90;66.60
78619;DHT22;67941;52.506;5.470;2024-03-29T03:45:34;7.90;66.70
78619;DHT22;67941;52.506;5.470;2024-03-29T03:48:00;7.90;66.70
78619;DHT22;67941;52.506;5.470;2024-03-29T03:50:29;8.00;66.80
78619;DHT22;67941;52.506;5.470;2024-03-29T03:52:56;8.00;66.80
78619;DHT22;67941;52.506;5.470;2024-03-29T03:55:22;8.10;66.80
78619;DHT22;67941;52.506;5.470;2024-03-29T03:57:48;8.10;66.80
78619;DHT22;67941;52.506;5.470;2024-03-29T04:00:15;8.20;66.80
78619;DHT22;67941;52.506;5.470;2024-03-29T04:02:42;8.30;66.80
78619;DHT22;67941;52.506;5.470;2024-03-29T04:05:09;8.40;66.70
78619;DHT22;67941;52.506;5.470;2024-03-29T04:07:37;8.50;66.60
78619;DHT22;67941;52.506;5.470;2024-03-29T04:10:04;8.50;66.60
78619;DHT22;67941;52.506;5.470;2024-03-29T04:12:31;8.60;66.50
78619;DHT22;67941;52.506;5.470;2024-03-29T04:14:57;8.60;66.50
78619;DHT22;67941;52.506;5.470;2024-03-29T04:17:24;8.60;66.50
78619;DHT22;67941;52.506;5.470;2024-03-29T04:19:50;8.60;66.50
78619;DHT22;67941;52.506;5.470;2024-03-29T04:22:16;8.60;66.50
78619;DHT22;67941;52.506;5.470;2024-03-29T04:24:45;8.60;66.50
78619;DHT22;67941;52.506;5.470;2024-03-29T04:27:14;8.60;66.50
78619;DHT22;67941;52.506;5.470;2024-03-29T04:29:40;8.60;66.50
78619;DHT22;67941;52.506;5.470;2024-03-29T04:32:06;8.60;66.50
78619;DHT22;67941;52.506;5.470;2024-03-29T04:34:34;8.60;66.50
78619;DHT22;67941;52.506;5.470;2024-03-29T04:37:00;8.70;66.50
78619;DHT22;67941;52.506;5.470;2024-03-29T04:39:27;8.60;66.50
78619;DHT22;67941;52.506;5.470;2024-03-29T04:41:56;8.60;66.50
78619;DHT22;67941;52.506;5.470;2024-03-29T04:44:26;8.70;66.50
78619;DHT22;67941;52.506;5.470;2024-03-29T04:46:53;8.70;66.50
78619;DHT22;67941;52.506;5.470;2024-03-29T04:49:21;8.70;66.50
78619;DHT22;67941;52.506;5.470;2024-03-29T04:51:48;8.70;66.50
78619;DHT22;67941;52.506;5.470;2024-03-29T04:54:17;8.80;66.50
78619;DHT22;67941;52.506;5.470;2024-03-29T04:56:43;8.80;66.50
78619;DHT22;67941;52.506;5.470;2024-03-29T04:59:12;8.80;66.50
78619;DHT22;67941;52.506;5.470;2024-03-29T05:01:40;8.80;66.50
78619;DHT22;67941;52.506;5.470;2024-03-29T05:04:06;8.90;66.50
78619;DHT22;67941;52.506;5.470;2024-03-29T05:06:33;8.90;66.50
78619;DHT22;67941;52.506;5.470;2024-03-29T05:08:59;8.90;66.50
78619;DHT22;67941;52.506;5.470;2024-03-29T05:11:26;8.90;66.50
78619;DHT22;67941;52.506;5.470;2024-03-29T05:13:52;8.90;66.50
78619;DHT22;67941;52.506;5.470;2024-03-29T05:16:21;8.90;66.40
78619;DHT22;67941;52.506;5.470;2024-03-29T05:18:47;8.90;66.50
78619;DHT22;67941;52.506;5.470;2024-03-29T05:21:14;8.90;66.40
78619;DHT22;67941;52.506;5.470;2024-03-29T05:23:40;8.90;66.40
78619;DHT22;67941;52.506;5.470;2024-03-29T05:26:06;8.90;66.40
78619;DHT22;67941;52.506;5.470;2024-03-29T05:28:33;9.00;66.50
78619;DHT22;67941;52.506;5.470;2024-03-29T05:31:11;9.00;66.50
78619;DHT22;67941;52.506;5.470;2024-03-29T05:33:40;9.00;66.50
78619;DHT22;67941;52.506;5.470;2024-03-29T05:36:07;9.00;66.50
78619;DHT22;67941;52.506;5.470;2024-03-29T05:38:33;9.00;66.50
78619;DHT22;67941;52.506;5.470;2024-03-29T05:41:00;9.00;66.50
78619;DHT22;67941;52.506;5.470;2024-03-29T05:43:26;9.00;66.50
78619;DHT22;67941;52.506;5.470;2024-03-29T05:45:52;9.00;66.50
78619;DHT22;67941;52.506;5.470;2024-03-29T05:48:19;9.10;66.50
78619;DHT22;67941;52.506;5.470;2024-03-29T05:50:48;9.10;66.50
78619;DHT22;67941;52.506;5.470;2024-03-29T05:53:14;9.20;66.50
78619;DHT22;67941;52.506;5.470;2024-03-29T05:55:40;9.20;66.60
78619;DHT22;67941;52.506;5.470;2024-03-29T05:58:07;9.20;66.60
78619;DHT22;67941;52.506;5.470;2024-03-29T06:00:33;9.20;66.60
78619;DHT22;67941;52.506;5.470;2024-03-29T06:03:00;9.20;66.70
78619;DHT22;67941;52.506;5.470;2024-03-29T06:05:28;9.20;66.60
78619;DHT22;67941;52.506;5.470;2024-03-29T06:07:57;9.30;66.70
78619;DHT22;67941;52.506;5.470;2024-03-29T06:10:23;9.40;66.70
78619;DHT22;67941;52.506;5.470;2024-03-29T06:12:50;9.40;66.70
78619;DHT22;67941;52.506;5.470;2024-03-29T06:15:17;9.40;66.70
78619;DHT22;67941;52.506;5.470;2024-03-29T06:17:58;9.40;66.70
78619;DHT22;67941;52.506;5.470;2024-03-29T06:20:25;9.40;66.70
78619;DHT22;67941;52.506;5.470;2024-03-29T06:22:52;9.40;66.80
78619;DHT22;67941;52.506;5.470;2024-03-29T06:25:21;9.40;66.90
78619;DHT22;67941;52.506;5.470;2024-03-29T06:27:47;9.40;66.90
78619;DHT22;67941;52.506;5.470;2024-03-29T06:30:14;9.50;67.00
78619;DHT22;67941;52.506;5.470;2024-03-29T06:32:41;9.50;67.00
78619;DHT22;67941;52.506;5.470;2024-03-29T06:35:08;9.60;67.00
78619;DHT22;67941;52.506;5.470;2024-03-29T06:37:34;9.60;67.00
78619;DHT22;67941;52.506;5.470;2024-03-29T06:40:05;9.70;67.10
78619;DHT22;67941;52.506;5.470;2024-03-29T06:42:33;9.70;67.10
78619;DHT22;67941;52.506;5.470;2024-03-29T06:45:00;9.80;67.20
78619;DHT22;67941;52.506;5.470;2024-03-29T06:47:28;9.90;67.20
78619;DHT22;67941;52.506;5.470;2024-03-29T06:49:54;10.00;67.10
78619;DHT22;67941;52.506;5.470;2024-03-29T06:52:20;10.00;67.20
78619;DHT22;67941;52.506;5.470;2024-03-29T06:54:46;10.00;67.20
78619;DHT22;67941;52.506;5.470;2024-03-29T06:57:13;10.00;67.20
78619;DHT22;67941;52.506;5.470;2024-03-29T06:59:42;10.00;67.30
78619;DHT22;67941;52.506;5.470;2024-03-29T07:02:08;10.00;67.30
78619;DHT22;67941;52.506;5.470;2024-03-29T07:04:35;10.00;67.30
78619;DHT22;67941;52.506;5.470;2024-03-29T07:07:01;10.00;67.30
78619;DHT22;67941;52.506;5.470;2024-03-29T07:09:27;10.00;67.40
78619;DHT22;67941;52.506;5.470;2024-03-29T07:11:54;10.00;67.50
78619;DHT22;67941;52.506;5.470;2024-03-29T07:14:20;9.90;67.40
78619;DHT22;67941;52.506;5.470;2024-03-29T07:16:49;9.90;67.50
78619;DHT22;67941;52.506;5.470;2024-03-29T07:19:15;9.90;67.70
78619;DHT22;67941;52.506;5.470;2024-03-29T07:21:42;9.90;67.70
78619;DHT22;67941;52.506;5.470;2024-03-29T07:24:09;10.00;67.70
78619;DHT22;67941;52.506;5.470;2024-03-29T07:26:35;10.00;67.80
78619;DHT22;67941;52.506;5.470;2024-03-29T07:29:02;10.10;67.80
78619;DHT22;67941;52.506;5.470;2024-03-29T07:31:28;10.20;67.80
78619;DHT22;67941;52.506;5.470;2024-03-29T07:33:57;10.20;67.70
78619;DHT22;67941;52.506;5.470;2024-03-29T07:36:23;10.30;67.70
78619;DHT22;67941;52.506;5.470;2024-03-29T07:38:50;10.30;67.60
78619;DHT22;67941;52.506;5.470;2024-03-29T07:41:16;10.30;67.60
78619;DHT22;67941;52.506;5.470;2024-03-29T07:43:51;10.30;67.70
78619;DHT22;67941;52.506;5.470;2024-03-29T07:46:18;10.30;67.70
78619;DHT22;67941;52.506;5.470;2024-03-29T07:48:44;10.30;67.70
78619;DHT22;67941;52.506;5.470;2024-03-29T07:51:13;10.30;67.70
78619;DHT22;67941;52.506;5.470;2024-03-29T07:53:40;10.30;67.80
78619;DHT22;67941;52.506;5.470;2024-03-29T07:56:07;10.30;67.90
78619;DHT22;67941;52.506;5.470;2024-03-29T07:58:33;10.30;68.00
78619;DHT22;67941;52.506;5.470;2024-03-29T08:00:59;10.40;68.20
78619;DHT22;67941;52.506;5.470;2024-03-29T08:03:26;10.50;68.20
78619;DHT22;67941;52.506;5.470;2024-03-29T08:05:58;10.50;68.00
78619;DHT22;67941;52.506;5.470;2024-03-29T08:08:27;10.60;68.00
78619;DHT22;67941;52.506;5.470;2024-03-29T08:10:54;10.60;68.00
78619;DHT22;67941;52.506;5.470;2024-03-29T08:13:20;10.70;68.00
78619;DHT22;67941;52.506;5.470;2024-03-29T08:15:47;10.70;68.00
78619;DHT22;67941;52.506;5.470;2024-03-29T08:18:13;10.70;67.90
78619;DHT22;67941;52.506;5.470;2024-03-29T08:20:40;10.70;67.80
78619;DHT22;67941;52.506;5.470;2024-03-29T08:23:06;10.60;67.80
78619;DHT22;67941;52.506;5.470;2024-03-29T08:25:35;10.60;67.90
78619;DHT22;67941;52.506;5.470;2024-03-29T08:28:01;10.50;68.00
78619;DHT22;67941;52.506;5.470;2024-03-29T08:30:28;10.50;68.00
78619;DHT22;67941;52.506;5.470;2024-03-29T08:32:55;10.50;68.10
78619;DHT22;67941;52.506;5.470;2024-03-29T08:35:21;10.50;68.10
78619;DHT22;67941;52.506;5.470;2024-03-29T08:37:48;10.50;68.20
78619;DHT22;67941;52.506;5.470;2024-03-29T08:40:16;10.60;68.20
78619;DHT22;67941;52.506;5.470;2024-03-29T08:42:45;10.60;68.20
78619;DHT22;67941;52.506;5.470;2024-03-29T08:45:11;10.60;68.20
78619;DHT22;67941;52.506;5.470;2024-03-29T08:47:38;10.60;68.30
78619;DHT22;67941;52.506;5.470;2024-03-29T08:50:05;10.70;68.40
78619;DHT22;67941;52.506;5.470;2024-03-29T08:52:31;10.80;68.40
78619;DHT22;67941;52.506;5.470;2024-03-29T08:54:58;11.00;68.50
78619;DHT22;67941;52.506;5.470;2024-03-29T08:57:25;11.10;68.50
78619;DHT22;67941;52.506;5.470;2024-03-29T08:59:55;11.30;68.50
78619;DHT22;67941;52.506;5.470;2024-03-29T09:02:21;11.40;68.50
78619;DHT22;67941;52.506;5.470;2024-03-29T09:04:48;11.60;68.50
78619;DHT22;67941;52.506;5.470;2024-03-29T09:07:14;11.90;68.50
78619;DHT22;67941;52.506;5.470;2024-03-29T09:09:41;12.10;68.50
78619;DHT22;67941;52.506;5.470;2024-03-29T09:12:09;12.30;68.30
78619;DHT22;67941;52.506;5.470;2024-03-29T09:14:35;12.50;68.10
78619;DHT22;67941;52.506;5.470;2024-03-29T09:17:04;12.60;67.90
78619;DHT22;67941;52.506;5.470;2024-03-29T09:19:31;12.70;67.60
78619;DHT22;67941;52.506;5.470;2024-03-29T09:21:58;12.70;67.50
78619;DHT22;67941;52.506;5.470;2024-03-29T09:24:25;12.60;67.50
78619;DHT22;67941;52.506;5.470;2024-03-29T09:26:51;12.50;67.60
78619;DHT22;67941;52.506;5.470;2024-03-29T09:29:17;12.50;67.50
78619;DHT22;67941;52.506;5.470;2024-03-29T09:31:44;12.50;67.50
78619;DHT22;67941;52.506;5.470;2024-03-29T09:34:13;12.50;67.60
78619;DHT22;67941;52.506;5.470;2024-03-29T09:36:39;12.50;67.60
78619;DHT22;67941;52.506;5.470;2024-03-29T09:39:05;12.50;67.70
78619;DHT22;67941;52.506;5.470;2024-03-29T09:41:32;12.50;67.80
78619;DHT22;67941;52.506;5.470;2024-03-29T09:43:59;12.50;67.90
78619;DHT22;67941;52.506;5.470;2024-03-29T09:46:28;12.50;67.90
78619;DHT22;67941;52.506;5.470;2024-03-29T09:48:56;12.50;67.90
78619;DHT22;67941;52.506;5.470;2024-03-29T09:51:25;12.70;67.90
78619;DHT22;67941;52.506;5.470;2024-03-29T09:53:52;12.80;67.80
78619;DHT22;67941;52.506;5.470;2024-03-29T09:56:19;12.90;67.80
78619;DHT22;67941;52.506;5.470;2024-03-29T09:58:46;12.90;67.70
78619;DHT22;67941;52.506;5.470;2024-03-29T10:01:12;13.00;67.60
78619;DHT22;67941;52.506;5.470;2024-03-29T10:03:39;13.10;67.50
78619;DHT22;67941;52.506;5.470;2024-03-29T10:06:06;13.10;67.60
78619;DHT22;67941;52.506;5.470;2024-03-29T10:08:39;13.10;67.70
78619;DHT22;67941;52.506;5.470;2024-03-29T10:11:05;13.20;67.80
78619;DHT22;67941;52.506;5.470;2024-03-29T10:13:31;13.30;67.70
78619;DHT22;67941;52.506;5.470;2024-03-29T10:15:58;13.50;67.60
78619;DHT22;67941;52.506;5.470;2024-03-29T10:18:26;13.50;67.60
78619;DHT22;67941;52.506;5.470;2024-03-29T10:21:00;13.60;67.30
78619;DHT22;67941;52.506;5.470;2024-03-29T10:23:27;13.80;67.30
78619;DHT22;67941;52.506;5.470;2024-03-29T10:25:56;13.90;67.20
78619;DHT22;67941;52.506;5.470;2024-03-29T10:28:22;14.00;67.10
78619;DHT22;67941;52.506;5.470;2024-03-29T10:30:49;14.20;67.00
78619;DHT22;67941;52.506;5.470;2024-03-29T10:33:16;14.30;66.90
78619;DHT22;67941;52.506;5.470;2024-03-29T10:35:43;14.30;66.80
78619;DHT22;67941;52.506;5.470;2024-03-29T10:38:09;14.40;66.80
78619;DHT22;67941;52.506;5.470;2024-03-29T10:40:37;14.50;66.70
78619;DHT22;67941;52.506;5.470;2024-03-29T10:43:07;14.50;66.80
78619;DHT22;67941;52.506;5.470;2024-03-29T10:45:34;14.60;66.50
78619;DHT22;67941;52.506;5.470;2024-03-29T10:48:03;14.60;66.30
78619;DHT22;67941;52.506;5.470;2024-03-29T10:50:31;14.50;66.20
78619;DHT22;67941;52.506;5.470;2024-03-29T10:53:00;14.40;66.20
78619;DHT22;67941;52.506;5.470;2024-03-29T10:55:29;14.20;66.20
78619;DHT22;67941;52.506;5.470;2024-03-29T10:57:57;14.20;66.20
78619;DHT22;67941;52.506;5.470;2024-03-29T11:00:28;14.10;66.20
78619;DHT22;67941;52.506;5.470;2024-03-29T11:03:05;14.10;66.40
78619;DHT22;67941;52.506;5.470;2024-03-29T11:05:35;14.10;66.60
78619;DHT22;67941;52.506;5.470;2024-03-29T11:08:06;14.30;66.60
78619;DHT22;67941;52.506;5.470;2024-03-29T11:10:36;14.40;66.40
78619;DHT22;67941;52.506;5.470;2024-03-29T11:13:12;14.50;66.20
78619;DHT22;67941;52.506;5.470;2024-03-29T11:15:41;14.60;66.20
78619;DHT22;67941;52.506;5.470;2024-03-29T11:18:10;14.70;66.20
78619;DHT22;67941;52.506;5.470;2024-03-29T11:20:37;14.80;66.10
78619;DHT22;67941;52.506;5.470;2024-03-29T11:23:06;15.00;66.00
78619;DHT22;67941;52.506;5.470;2024-03-29T11:25:41;15.10;65.90
78619;DHT22;67941;52.506;5.470;2024-03-29T11:28:09;15.30;65.80
78619;DHT22;67941;52.506;5.470;2024-03-29T11:30:44;15.40;65.60
78619;DHT22;67941;52.506;5.470;2024-03-29T11:33:27;15.40;65.40
78619;DHT22;67941;52.506;5.470;2024-03-29T11:35:54;15.50;65.30
78619;DHT22;67941;52.506;5.470;2024-03-29T11:38:21;15.60;65.30
78619;DHT22;67941;52.506;5.470;2024-03-29T11:40:53;15.60;65.20
78619;DHT22;67941;52.506;5.470;2024-03-29T11:43:19;15.80;65.20
78619;DHT22;67941;52.506;5.470;2024-03-29T11:45:50;15.80;65.20
78619;DHT22;67941;52.506;5.470;2024-03-29T11:48:21;15.80;65.00
78619;DHT22;67941;52.506;5.470;2024-03-29T11:50:49;15.80;64.80
78619;DHT22;67941;52.506;5.470;2024-03-29T11:53:15;15.80;64.60
78619;DHT22;67941;52.506;5.470;2024-03-29T11:55:41;15.80;64.60
78619;DHT22;67941;52.506;5.470;2024-03-29T11:58:07;15.80;64.50
78619;DHT22;67941;52.506;5.470;2024-03-29T12:00:34;15.80;64.50
78619;DHT22;67941;52.506;5.470;2024-03-29T12:03:03;15.80;64.70
78619;DHT22;67941;52.506;5.470;2024-03-29T12:05:32;15.80;64.60
78619;DHT22;67941;52.506;5.470;2024-03-29T12:07:58;15.90;64.40
78619;DHT22;67941;52.506;5.470;2024-03-29T12:10:26;15.90;64.30
78619;DHT22;67941;52.506;5.470;2024-03-29T12:12:56;15.90;64.20
78619;DHT22;67941;52.506;5.470;2024-03-29T12:15:23;16.00;64.20
78619;DHT22;67941;52.506;5.470;2024-03-29T12:17:53;16.00;64.20
78619;DHT22;67941;52.506;5.470;2024-03-29T12:20:22;16.00;64.00
78619;DHT22;67941;52.506;5.470;2024-03-29T12:22:49;16.00;63.90
78619;DHT22;67941;52.506;5.470;2024-03-29T12:25:16;15.90;63.70
78619;DHT22;67941;52.506;5.470;2024-03-29T12:27:42;15.90;63.70
78619;DHT22;67941;52.506;5.470;2024-03-29T12:30:10;15.80;63.60
78619;DHT22;67941;52.506;5.470;2024-03-29T12:32:39;15.80;63.60
78619;DHT22;67941;52.506;5.470;2024-03-29T12:35:09;15.80;63.50
78619;DHT22;67941;52.506;5.470;2024-03-29T12:37:46;15.60;63.40
78619;DHT22;67941;52.506;5.470;2024-03-29T12:40:13;15.60;63.30
78619;DHT22;67941;52.506;5.470;2024-03-29T12:42:39;15.40;63.20
78619;DHT22;67941;52.506;5.470;2024-03-29T12:45:07;15.20;63.30
78619;DHT22;67941;52.506;5.470;2024-03-29T12:47:34;15.10;63.40
78619;DHT22;67941;52.506;5.470;2024-03-29T12:50:00;15.00;63.40
78619;DHT22;67941;52.506;5.470;2024-03-29T12:52:26;15.00;63.40
78619;DHT22;67941;52.506;5.470;2024-03-29T12:54:55;15.00;63.40
78619;DHT22;67941;52.506;5.470;2024-03-29T12:57:21;14.90;63.40
78619;DHT22;67941;52.506;5.470;2024-03-29T12:59:47;14.90;63.40
78619;DHT22;67941;52.506;5.470;2024-03-29T13:02:13;14.90;63.40
78619;DHT22;67941;52.506;5.470;2024-03-29T13:04:40;15.00;63.50
78619;DHT22;67941;52.506;5.470;2024-03-29T13:07:06;15.00;63.50
78619;DHT22;67941;52.506;5.470;2024-03-29T13:09:32;15.20;63.50
78619;DHT22;67941;52.506;5.470;2024-03-29T13:12:01;15.40;63.50
78619;DHT22;67941;52.506;5.470;2024-03-29T13:14:27;15.60;63.40
78619;DHT22;67941;52.506;5.470;2024-03-29T13:16:53;15.70;63.20
78619;DHT22;67941;52.506;5.470;2024-03-29T13:19:19;15.80;63.20
78619;DHT22;67941;52.506;5.470;2024-03-29T13:21:46;16.00;63.20
78619;DHT22;67941;52.506;5.470;2024-03-29T13:24:12;16.10;63.00
78619;DHT22;67941;52.506;5.470;2024-03-29T13:26:40;16.40;62.90
78619;DHT22;67941;52.506;5.470;2024-03-29T13:29:09;16.50;62.60
78619;DHT22;67941;52.506;5.470;2024-03-29T13:31:35;16.60;62.50
78619;DHT22;67941;52.506;5.470;2024-03-29T13:34:01;16.60;62.60
78619;DHT22;67941;52.506;5.470;2024-03-29T13:36:29;16.70;62.50
78619;DHT22;67941;52.506;5.470;2024-03-29T13:38:56;16.80;62.50
78619;DHT22;67941;52.506;5.470;2024-03-29T13:41:22;16.80;62.20
78619;DHT22;67941;52.506;5.470;2024-03-29T13:43:48;16.70;62.20
78619;DHT22;67941;52.506;5.470;2024-03-29T13:46:17;16.70;62.40
78619;DHT22;67941;52.506;5.470;2024-03-29T13:48:45;16.70;62.30
78619;DHT22;67941;52.506;5.470;2024-03-29T13:51:12;16.80;62.50
78619;DHT22;67941;52.506;5.470;2024-03-29T13:53:40;16.80;62.30
78619;DHT22;67941;52.506;5.470;2024-03-29T13:56:07;16.90;62.20
78619;DHT22;67941;52.506;5.470;2024-03-29T13:58:33;16.90;62.30
78619;DHT22;67941;52.506;5.470;2024-03-29T14:00:59;17.00;62.10
78619;DHT22;67941;52.506;5.470;2024-03-29T14:03:28;17.00;62.00
78619;DHT22;67941;52.506;5.470;2024-03-29T14:05:54;17.00;61.90
78619;DHT22;67941;52.506;5.470;2024-03-29T14:08:20;17.00;61.90
78619;DHT22;67941;52.506;5.470;2024-03-29T14:10:47;17.00;61.80
78619;DHT22;67941;52.506;5.470;2024-03-29T14:13:15;17.00;61.90
78619;DHT22;67941;52.506;5.470;2024-03-29T14:15:41;17.00;61.70
78619;DHT22;67941;52.506;5.470;2024-03-29T14:18:07;17.00;61.70
78619;DHT22;67941;52.506;5.470;2024-03-29T14:20:36;17.00;61.60
78619;DHT22;67941;52.506;5.470;2024-03-29T14:23:02;17.00;61.60
78619;DHT22;67941;52.506;5.470;2024-03-29T14:25:29;17.00;61.30
78619;DHT22;67941;52.506;5.470;2024-03-29T14:28:01;17.00;61.20
78619;DHT22;67941;52.506;5.470;2024-03-29T14:30:28;17.00;61.10
78619;DHT22;67941;52.506;5.470;2024-03-29T14:32:54;16.90;61.00
78619;DHT22;67941;52.506;5.470;2024-03-29T14:35:20;16.90;60.90
78619;DHT22;67941;52.506;5.470;2024-03-29T14:37:49;16.90;60.90
78619;DHT22;67941;52.506;5.470;2024-03-29T14:40:15;16.80;60.90
78619;DHT22;67941;52.506;5.470;2024-03-29T14:42:42;16.70;60.70
78619;DHT22;67941;52.506;5.470;2024-03-29T14:45:08;16.70;60.50
78619;DHT22;67941;52.506;5.470;2024-03-29T14:47:35;16.60;60.50
78619;DHT22;67941;52.506;5.470;2024-03-29T14:50:01;16.60;60.60
78619;DHT22;67941;52.506;5.470;2024-03-29T14:52:27;16.50;60.60
78619;DHT22;67941;52.506;5.470;2024-03-29T14:54:55;16.50;60.60
78619;DHT22;67941;52.506;5.470;2024-03-29T14:57:22;16.50;60.50
78619;DHT22;67941;52.506;5.470;2024-03-29T14:59:48;16.50;60.50
78619;DHT22;67941;52.506;5.470;2024-03-29T15:02:17;16.50;60.50
78619;DHT22;67941;52.506;5.470;2024-03-29T15:04:44;16.50;60.50
78619;DHT22;67941;52.506;5.470;2024-03-29T15:07:10;16.60;60.40
78619;DHT22;67941;52.506;5.470;2024-03-29T15:09:36;16.60;60.30
78619;DHT22;67941;52.506;5.470;2024-03-29T15:12:06;16.70;60.20
78619;DHT22;67941;52.506;5.470;2024-03-29T15:14:32;16.70;60.00
78619;DHT22;67941;52.506;5.470;2024-03-29T15:16:58;16.70;59.80
78619;DHT22;67941;52.506;5.470;2024-03-29T15:19:24;16.70;59.70
78619;DHT22;67941;52.506;5.470;2024-03-29T15:21:51;16.70;59.80
78619;DHT22;67941;52.506;5.470;2024-03-29T15:24:17;16.70;59.70
78619;DHT22;67941;52.506;5.470;2024-03-29T15:26:43;16.70;59.70
78619;DHT22;67941;52.506;5.470;2024-03-29T15:29:12;16.70;59.70
78619;DHT22;67941;52.506;5.470;2024-03-29T15:31:39;16.60;59.70
78619;DHT22;67941;52.506;5.470;2024-03-29T15:34:07;16.60;59.70
78619;DHT22;67941;52.506;5.470;2024-03-29T15:36:34;16.60;59.60